sensor_id;sensor_type;location;lat;lon;timestamp;temperature;humidity
63445;DHT22;49573;47.682;9.170;2024-01-07T00:00:39;4.30;86.80
63445;DHT22;49573;47.682;9.170;2024-01-07T00:03:26;4.30;87.00
63445;DHT22;49573;47.682;9.170;2024-01-07T00:06:12;4.30;87.00
63445;DHT22;49573;47.682;9.170;2024-01-07T00:08:58;4.20;86.80
63445;DHT22;49573;47.682;9.170;2024-01-07T00:11:44;4.30;86.90
63445;DHT22;49573;47.682;9.170;2024-01-07T00:14:30;4.30;86.90
63445;DHT22;49573;47.682;9.170;2024-01-07T00:17:16;4.30;86.70
63445;DHT22;49573;47.682;9.170;2024-01-07T00:20:05;4.30;86.40
63445;DHT22;49573;47.682;9.170;2024-01-07T00:22:52;4.20;86.60
63445;DHT22;49573;47.682;9.170;2024-01-07T00:25:38;4.20;86.50
63445;DHT22;49573;47.682;9.170;2024-01-07T00:28:24;4.20;86.70
63445;DHT22;49573;47.682;9.170;2024-01-07T00:31:11;4.20;86.80
63445;DHT22;49573;47.682;9.170;2024-01-07T00:33:58;4.20;86.90
63445;DHT22;49573;47.682;9.170;2024-01-07T00:36:45;4.20;86.80
63445;DHT22;49573;47.682;9.170;2024-01-07T00:39:31;4.20;86.90
63445;DHT22;49573;47.682;9.170;2024-01-07T00:42:17;4.20;86.90
63445;DHT22;49573;47.682;9.170;2024-01-07T00:45:04;4.30;86.80
63445;DHT22;49573;47.682;9.170;2024-01-07T00:47:50;4.20;87.00
63445;DHT22;49573;47.682;9.170;2024-01-07T00:50:36;4.20;87.00
63445;DHT22;49573;47.682;9.170;2024-01-07T00:53:23;4.20;87.10
63445;DHT22;49573;47.682;9.170;2024-01-07T00:56:09;4.20;87.20
63445;DHT22;49573;47.682;9.170;2024-01-07T00:58:55;4.20;87.10
63445;DHT22;49573;47.682;9.170;2024-01-07T01:01:41;4.20;86.90
63445;DHT22;49573;47.682;9.170;2024-01-07T01:04:27;4.20;86.90
63445;DHT22;49573;47.682;9.170;2024-01-07T01:07:14;4.20;87.00
63445;DHT22;49573;47.682;9.170;2024-01-07T01:10:01;4.20;87.10
63445;DHT22;49573;47.682;9.170;2024-01-07T01:12:47;4.20;87.20
63445;DHT22;49573;47.682;9.170;2024-01-07T01:15:33;4.20;86.70
63445;DHT22;49573;47.682;9.170;2024-01-07T01:18:19;4.20;86.70
63445;DHT22;49573;47.682;9.170;2024-01-07T01:21:05;4.20;87.00
63445;DHT22;49573;47.682;9.170;2024-01-07T01:23:51;4.20;87.20
63445;DHT22;49573;47.682;9.170;2024-01-07T01:26:39;4.10;87.20
63445;DHT22;49573;47.682;9.170;2024-01-07T01:29:25;4.10;86.80
63445;DHT22;49573;47.682;9.170;2024-01-07T01:32:11;4.10;87.00
63445;DHT22;49573;47.682;9.170;2024-01-07T01:34:57;4.10;87.20
63445;DHT22;49573;47.682;9.170;2024-01-07T01:37:43;4.20;87.20
63445;DHT22;49573;47.682;9.170;2024-01-07T01:40:29;4.10;87.20
63445;DHT22;49573;47.682;9.170;2024-01-07T01:43:23;4.10;87.00
63445;DHT22;49573;47.682;9.170;2024-01-07T01:46:09;4.10;87.10
63445;DHT22;49573;47.682;9.170;2024-01-07T01:48:56;4.10;87.00
63445;DHT22;49573;47.682;9.170;2024-01-07T01:51:42;4.10;86.80
63445;DHT22;49573;47.682;9.170;2024-01-07T01:54:28;4.10;87.00
63445;DHT22;49573;47.682;9.170;2024-01-07T01:57:16;4.00;86.70
63445;DHT22;49573;47.682;9.170;2024-01-07T02:00:07;4.10;86.70
63445;DHT22;49573;47.682;9.170;2024-01-07T02:02:54;4.00;86.80
63445;DHT22;49573;47.682;9.170;2024-01-07T02:05:40;4.10;86.90
63445;DHT22;49573;47.682;9.170;2024-01-07T02:08:26;4.00;86.70
63445;DHT22;49573;47.682;9.170;2024-01-07T02:11:17;4.00;86.40
63445;DHT22;49573;47.682;9.170;2024-01-07T02:14:03;4.00;86.90
63445;DHT22;49573;47.682;9.170;2024-01-07T02:16:50;4.00;87.10
63445;DHT22;49573;47.682;9.170;2024-01-07T02:19:36;4.00;87.20
63445;DHT22;49573;47.682;9.170;2024-01-07T02:22:22;4.00;87.30
63445;DHT22;49573;47.682;9.170;2024-01-07T02:25:09;4.00;87.30
63445;DHT22;49573;47.682;9.170;2024-01-07T02:27:55;4.00;87.00
63445;DHT22;49573;47.682;9.170;2024-01-07T02:30:41;4.00;86.90
63445;DHT22;49573;47.682;9.170;2024-01-07T02:33:27;4.00;87.20
63445;DHT22;49573;47.682;9.170;2024-01-07T02:36:15;4.00;87.20
63445;DHT22;49573;47.682;9.170;2024-01-07T02:39:01;4.00;87.10
63445;DHT22;49573;47.682;9.170;2024-01-07T02:41:49;4.00;87.20
63445;DHT22;49573;47.682;9.170;2024-01-07T02:44:35;4.00;87.30
63445;DHT22;49573;47.682;9.170;2024-01-07T02:47:22;4.00;87.30
63445;DHT22;49573;47.682;9.170;2024-01-07T02:50:08;4.00;87.20
63445;DHT22;49573;47.682;9.170;2024-01-07T02:52:54;4.00;86.90
63445;DHT22;49573;47.682;9.170;2024-01-07T02:55:40;4.00;87.10
63445;DHT22;49573;47.682;9.170;2024-01-07T02:58:27;4.00;87.00
63445;DHT22;49573;47.682;9.170;2024-01-07T03:01:13;4.00;87.20
63445;DHT22;49573;47.682;9.170;2024-01-07T03:03:59;4.00;87.20
63445;DHT22;49573;47.682;9.170;2024-01-07T03:06:45;4.00;87.20
63445;DHT22;49573;47.682;9.170;2024-01-07T03:09:31;4.00;87.00
63445;DHT22;49573;47.682;9.170;2024-01-07T03:12:18;4.00;87.30
63445;DHT22;49573;47.682;9.170;2024-01-07T03:15:06;4.00;87.30
63445;DHT22;49573;47.682;9.170;2024-01-07T03:17:54;4.00;87.40
63445;DHT22;49573;47.682;9.170;2024-01-07T03:20:40;4.10;87.50
63445;DHT22;49573;47.682;9.170;2024-01-07T03:23:26;4.00;87.50
63445;DHT22;49573;47.682;9.170;2024-01-07T03:26:13;4.00;87.40
63445;DHT22;49573;47.682;9.170;2024-01-07T03:28:59;4.00;87.50
63445;DHT22;49573;47.682;9.170;2024-01-07T03:31:47;4.00;87.40
63445;DHT22;49573;47.682;9.170;2024-01-07T03:34:33;4.00;87.50
63445;DHT22;49573;47.682;9.170;2024-01-07T03:37:19;4.00;87.20
63445;DHT22;49573;47.682;9.170;2024-01-07T03:40:10;4.00;87.40
63445;DHT22;49573;47.682;9.170;2024-01-07T03:42:56;4.00;87.30
63445;DHT22;49573;47.682;9.170;2024-01-07T03:45:42;4.00;87.30
63445;DHT22;49573;47.682;9.170;2024-01-07T03:48:30;4.00;87.40
63445;DHT22;49573;47.682;9.170;2024-01-07T03:51:16;4.00;87.30
63445;DHT22;49573;47.682;9.170;2024-01-07T03:54:02;4.00;87.10
63445;DHT22;49573;47.682;9.170;2024-01-07T03:56:48;4.00;87.00
63445;DHT22;49573;47.682;9.170;2024-01-07T03:59:34;4.00;87.00
63445;DHT22;49573;47.682;9.170;2024-01-07T04:02:20;4.00;87.10
63445;DHT22;49573;47.682;9.170;2024-01-07T04:05:08;3.90;87.00
63445;DHT22;49573;47.682;9.170;2024-01-07T04:07:55;4.00;87.10
63445;DHT22;49573;47.682;9.170;2024-01-07T04:10:41;3.90;87.00
63445;DHT22;49573;47.682;9.170;2024-01-07T04:13:27;3.90;86.90
63445;DHT22;49573;47.682;9.170;2024-01-07T04:16:17;4.00;87.20
63445;DHT22;49573;47.682;9.170;2024-01-07T04:19:03;3.90;87.10
63445;DHT22;49573;47.682;9.170;2024-01-07T04:21:50;4.00;87.20
63445;DHT22;49573;47.682;9.170;2024-01-07T04:24:36;3.90;87.10
63445;DHT22;49573;47.682;9.170;2024-01-07T04:27:22;3.90;87.00
63445;DHT22;49573;47.682;9.170;2024-01-07T04:30:11;4.00;87.20
63445;DHT22;49573;47.682;9.170;2024-01-07T04:32:57;3.90;87.40
63445;DHT22;49573;47.682;9.170;2024-01-07T04:35:43;3.90;87.30
63445;DHT22;49573;47.682;9.170;2024-01-07T04:38:30;3.80;87.20
63445;DHT22;49573;47.682;9.170;2024-01-07T04:41:16;3.80;87.50
63445;DHT22;49573;47.682;9.170;2024-01-07T04:44:03;3.80;87.20
63445;DHT22;49573;47.682;9.170;2024-01-07T04:46:49;3.80;87.30
63445;DHT22;49573;47.682;9.170;2024-01-07T04:49:35;3.80;87.20
63445;DHT22;49573;47.682;9.170;2024-01-07T04:52:22;3.90;87.60
63445;DHT22;49573;47.682;9.170;2024-01-07T04:55:10;3.80;87.50
63445;DHT22;49573;47.682;9.170;2024-01-07T04:57:56;3.80;87.50
63445;DHT22;49573;47.682;9.170;2024-01-07T05:00:42;3.90;87.40
63445;DHT22;49573;47.682;9.170;2024-01-07T05:03:28;3.90;87.40
63445;DHT22;49573;47.682;9.170;2024-01-07T05:06:14;3.80;87.40
63445;DHT22;49573;47.682;9.170;2024-01-07T05:09:00;3.90;87.60
63445;DHT22;49573;47.682;9.170;2024-01-07T05:11:47;3.90;87.70
63445;DHT22;49573;47.682;9.170;2024-01-07T05:14:33;3.90;87.30
63445;DHT22;49573;47.682;9.170;2024-01-07T05:17:19;3.90;87.00
63445;DHT22;49573;47.682;9.170;2024-01-07T05:20:06;3.80;87.20
63445;DHT22;49573;47.682;9.170;2024-01-07T05:22:53;3.90;87.20
63445;DHT22;49573;47.682;9.170;2024-01-07T05:25:39;3.90;87.40
63445;DHT22;49573;47.682;9.170;2024-01-07T05:28:26;3.90;87.60
63445;DHT22;49573;47.682;9.170;2024-01-07T05:31:15;4.00;87.80
63445;DHT22;49573;47.682;9.170;2024-01-07T05:34:01;3.90;87.80
63445;DHT22;49573;47.682;9.170;2024-01-07T05:36:47;3.90;87.70
63445;DHT22;49573;47.682;9.170;2024-01-07T05:39:33;3.90;87.70
63445;DHT22;49573;47.682;9.170;2024-01-07T05:42:19;3.90;87.80
63445;DHT22;49573;47.682;9.170;2024-01-07T05:45:07;4.00;87.80
63445;DHT22;49573;47.682;9.170;2024-01-07T05:47:54;4.00;87.70
63445;DHT22;49573;47.682;9.170;2024-01-07T05:50:39;4.00;87.80
63445;DHT22;49573;47.682;9.170;2024-01-07T05:53:25;4.00;87.80
63445;DHT22;49573;47.682;9.170;2024-01-07T05:56:12;4.00;87.70
63445;DHT22;49573;47.682;9.170;2024-01-07T05:58:58;4.00;87.70
63445;DHT22;49573;47.682;9.170;2024-01-07T06:01:45;4.00;87.30
63445;DHT22;49573;47.682;9.170;2024-01-07T06:04:31;4.00;87.10
63445;DHT22;49573;47.682;9.170;2024-01-07T06:07:17;3.90;87.40
63445;DHT22;49573;47.682;9.170;2024-01-07T06:10:04;4.00;87.10
63445;DHT22;49573;47.682;9.170;2024-01-07T06:12:50;4.00;87.20
63445;DHT22;49573;47.682;9.170;2024-01-07T06:15:36;4.00;87.50
63445;DHT22;49573;47.682;9.170;2024-01-07T06:18:23;4.00;87.40
63445;DHT22;49573;47.682;9.170;2024-01-07T06:21:09;3.90;87.10
63445;DHT22;49573;47.682;9.170;2024-01-07T06:23:55;3.90;87.30
63445;DHT22;49573;47.682;9.170;2024-01-07T06:26:41;4.00;87.50
63445;DHT22;49573;47.682;9.170;2024-01-07T06:29:27;4.00;87.50
63445;DHT22;49573;47.682;9.170;2024-01-07T06:32:13;4.00;87.80
63445;DHT22;49573;47.682;9.170;2024-01-07T06:35:01;4.00;87.80
63445;DHT22;49573;47.682;9.170;2024-01-07T06:37:49;4.00;87.60
63445;DHT22;49573;47.682;9.170;2024-01-07T06:40:35;3.90;87.20
63445;DHT22;49573;47.682;9.170;2024-01-07T06:43:21;3.90;87.40
63445;DHT22;49573;47.682;9.170;2024-01-07T06:46:07;3.90;87.30
63445;DHT22;49573;47.682;9.170;2024-01-07T06:48:53;4.00;87.60
63445;DHT22;49573;47.682;9.170;2024-01-07T06:51:40;4.00;87.60
63445;DHT22;49573;47.682;9.170;2024-01-07T06:54:26;4.00;87.60
63445;DHT22;49573;47.682;9.170;2024-01-07T06:57:12;4.00;87.90
63445;DHT22;49573;47.682;9.170;2024-01-07T06:59:58;4.00;88.20
63445;DHT22;49573;47.682;9.170;2024-01-07T07:02:44;4.00;87.60
63445;DHT22;49573;47.682;9.170;2024-01-07T07:05:30;4.10;88.20
63445;DHT22;49573;47.682;9.170;2024-01-07T07:08:17;4.10;88.30
63445;DHT22;49573;47.682;9.170;2024-01-07T07:11:04;4.00;87.60
63445;DHT22;49573;47.682;9.170;2024-01-07T07:13:50;4.10;88.10
63445;DHT22;49573;47.682;9.170;2024-01-07T07:16:36;4.00;87.70
63445;DHT22;49573;47.682;9.170;2024-01-07T07:19:22;4.00;87.70
63445;DHT22;49573;47.682;9.170;2024-01-07T07:22:08;4.10;88.10
63445;DHT22;49573;47.682;9.170;2024-01-07T07:24:55;4.10;87.50
63445;DHT22;49573;47.682;9.170;2024-01-07T07:27:42;4.10;87.80
63445;DHT22;49573;47.682;9.170;2024-01-07T07:30:29;4.00;87.00
63445;DHT22;49573;47.682;9.170;2024-01-07T07:33:15;4.00;87.10
63445;DHT22;49573;47.682;9.170;2024-01-07T07:36:02;4.10;87.80
63445;DHT22;49573;47.682;9.170;2024-01-07T07:38:48;4.20;87.30
63445;DHT22;49573;47.682;9.170;2024-01-07T07:41:35;4.10;86.80
63445;DHT22;49573;47.682;9.170;2024-01-07T07:44:21;4.10;87.70
63445;DHT22;49573;47.682;9.170;2024-01-07T07:47:07;4.20;87.60
63445;DHT22;49573;47.682;9.170;2024-01-07T07:49:53;4.20;86.90
63445;DHT22;49573;47.682;9.170;2024-01-07T07:52:41;4.10;86.70
63445;DHT22;49573;47.682;9.170;2024-01-07T07:55:27;4.10;86.90
63445;DHT22;49573;47.682;9.170;2024-01-07T07:58:15;4.00;86.70
63445;DHT22;49573;47.682;9.170;2024-01-07T08:01:01;4.00;86.60
63445;DHT22;49573;47.682;9.170;2024-01-07T08:03:47;4.00;86.60
63445;DHT22;49573;47.682;9.170;2024-01-07T08:06:33;4.10;86.70
63445;DHT22;49573;47.682;9.170;2024-01-07T08:09:19;4.10;86.80
63445;DHT22;49573;47.682;9.170;2024-01-07T08:12:06;4.00;86.40
63445;DHT22;49573;47.682;9.170;2024-01-07T08:14:54;4.00;86.60
63445;DHT22;49573;47.682;9.170;2024-01-07T08:17:40;4.00;86.50
63445;DHT22;49573;47.682;9.170;2024-01-07T08:20:26;4.00;86.40
63445;DHT22;49573;47.682;9.170;2024-01-07T08:23:12;4.10;86.20
63445;DHT22;49573;47.682;9.170;2024-01-07T08:25:58;4.00;86.40
63445;DHT22;49573;47.682;9.170;2024-01-07T08:28:44;4.10;86.50
63445;DHT22;49573;47.682;9.170;2024-01-07T08:31:31;4.10;86.30
63445;DHT22;49573;47.682;9.170;2024-01-07T08:34:17;4.20;86.60
63445;DHT22;49573;47.682;9.170;2024-01-07T08:37:04;4.20;86.00
63445;DHT22;49573;47.682;9.170;2024-01-07T08:39:50;4.10;86.30
63445;DHT22;49573;47.682;9.170;2024-01-07T08:42:36;4.10;85.90
63445;DHT22;49573;47.682;9.170;2024-01-07T08:45:22;4.10;86.40
63445;DHT22;49573;47.682;9.170;2024-01-07T08:48:09;4.10;86.40
63445;DHT22;49573;47.682;9.170;2024-01-07T08:50:56;4.20;86.60
63445;DHT22;49573;47.682;9.170;2024-01-07T08:53:42;4.20;86.20
63445;DHT22;49573;47.682;9.170;2024-01-07T08:56:28;4.20;86.10
63445;DHT22;49573;47.682;9.170;2024-01-07T08:59:14;4.20;86.10
63445;DHT22;49573;47.682;9.170;2024-01-07T09:02:00;4.20;86.00
63445;DHT22;49573;47.682;9.170;2024-01-07T09:04:47;4.20;86.20
63445;DHT22;49573;47.682;9.170;2024-01-07T09:07:33;4.20;85.80
63445;DHT22;49573;47.682;9.170;2024-01-07T09:10:19;4.20;86.00
63445;DHT22;49573;47.682;9.170;2024-01-07T09:13:07;4.20;85.70
63445;DHT22;49573;47.682;9.170;2024-01-07T09:15:53;4.20;85.80
63445;DHT22;49573;47.682;9.170;2024-01-07T09:18:39;4.20;85.60
63445;DHT22;49573;47.682;9.170;2024-01-07T09:21:26;4.10;85.80
63445;DHT22;49573;47.682;9.170;2024-01-07T09:24:13;4.10;86.10
63445;DHT22;49573;47.682;9.170;2024-01-07T09:26:59;4.20;85.40
63445;DHT22;49573;47.682;9.170;2024-01-07T09:29:45;4.10;86.00
63445;DHT22;49573;47.682;9.170;2024-01-07T09:32:31;4.20;86.20
63445;DHT22;49573;47.682;9.170;2024-01-07T09:35:17;4.30;85.90
63445;DHT22;49573;47.682;9.170;2024-01-07T09:38:05;4.30;86.30
63445;DHT22;49573;47.682;9.170;2024-01-07T09:40:51;4.30;85.80
63445;DHT22;49573;47.682;9.170;2024-01-07T09:43:37;4.30;85.60
63445;DHT22;49573;47.682;9.170;2024-01-07T09:46:24;4.30;85.70
63445;DHT22;49573;47.682;9.170;2024-01-07T09:49:10;4.40;85.60
63445;DHT22;49573;47.682;9.170;2024-01-07T09:51:59;4.40;85.40
63445;DHT22;49573;47.682;9.170;2024-01-07T09:54:51;4.40;85.60
63445;DHT22;49573;47.682;9.170;2024-01-07T09:57:40;4.40;85.60
63445;DHT22;49573;47.682;9.170;2024-01-07T10:00:27;4.40;85.60
63445;DHT22;49573;47.682;9.170;2024-01-07T10:03:14;4.50;86.00
63445;DHT22;49573;47.682;9.170;2024-01-07T10:06:00;4.50;85.60
63445;DHT22;49573;47.682;9.170;2024-01-07T10:08:46;4.50;85.40
63445;DHT22;49573;47.682;9.170;2024-01-07T10:11:34;4.50;85.80
63445;DHT22;49573;47.682;9.170;2024-01-07T10:14:21;4.60;85.50
63445;DHT22;49573;47.682;9.170;2024-01-07T10:17:15;4.60;85.30
63445;DHT22;49573;47.682;9.170;2024-01-07T10:20:04;4.50;85.50
63445;DHT22;49573;47.682;9.170;2024-01-07T10:22:51;4.70;85.80
63445;DHT22;49573;47.682;9.170;2024-01-07T10:25:38;4.60;85.20
63445;DHT22;49573;47.682;9.170;2024-01-07T10:28:25;4.70;85.70
63445;DHT22;49573;47.682;9.170;2024-01-07T10:31:11;4.70;85.30
63445;DHT22;49573;47.682;9.170;2024-01-07T10:33:57;4.70;85.50
63445;DHT22;49573;47.682;9.170;2024-01-07T10:36:44;4.70;85.20
63445;DHT22;49573;47.682;9.170;2024-01-07T10:39:31;4.70;85.50
63445;DHT22;49573;47.682;9.170;2024-01-07T10:42:18;4.70;85.30
63445;DHT22;49573;47.682;9.170;2024-01-07T10:45:06;4.80;85.40
63445;DHT22;49573;47.682;9.170;2024-01-07T10:47:55;4.70;85.00
63445;DHT22;49573;47.682;9.170;2024-01-07T10:50:41;4.70;85.50
63445;DHT22;49573;47.682;9.170;2024-01-07T10:53:33;4.70;84.90
63445;DHT22;49573;47.682;9.170;2024-01-07T10:56:24;4.70;85.30
63445;DHT22;49573;47.682;9.170;2024-01-07T10:59:10;4.70;85.30
63445;DHT22;49573;47.682;9.170;2024-01-07T11:01:58;4.80;85.20
63445;DHT22;49573;47.682;9.170;2024-01-07T11:04:50;4.80;85.10
63445;DHT22;49573;47.682;9.170;2024-01-07T11:07:41;4.80;85.50
63445;DHT22;49573;47.682;9.170;2024-01-07T11:10:35;4.80;85.10
63445;DHT22;49573;47.682;9.170;2024-01-07T11:13:32;4.80;85.00
63445;DHT22;49573;47.682;9.170;2024-01-07T11:16:41;4.80;85.00
63445;DHT22;49573;47.682;9.170;2024-01-07T11:19:29;4.80;84.80
63445;DHT22;49573;47.682;9.170;2024-01-07T11:22:22;4.80;85.20
63445;DHT22;49573;47.682;9.170;2024-01-07T11:25:27;4.80;85.20
63445;DHT22;49573;47.682;9.170;2024-01-07T11:28:13;4.80;84.90
63445;DHT22;49573;47.682;9.170;2024-01-07T11:30:59;4.90;84.90
63445;DHT22;49573;47.682;9.170;2024-01-07T11:33:47;4.80;85.20
63445;DHT22;49573;47.682;9.170;2024-01-07T11:36:35;4.90;85.20
63445;DHT22;49573;47.682;9.170;2024-01-07T11:39:21;4.90;85.00
63445;DHT22;49573;47.682;9.170;2024-01-07T11:42:07;4.90;85.40
63445;DHT22;49573;47.682;9.170;2024-01-07T11:44:55;5.00;84.80
63445;DHT22;49573;47.682;9.170;2024-01-07T11:47:41;4.90;85.10
63445;DHT22;49573;47.682;9.170;2024-01-07T11:50:27;5.00;84.80
63445;DHT22;49573;47.682;9.170;2024-01-07T11:53:15;5.00;84.40
63445;DHT22;49573;47.682;9.170;2024-01-07T11:56:01;5.00;84.80
63445;DHT22;49573;47.682;9.170;2024-01-07T11:58:47;5.00;84.50
63445;DHT22;49573;47.682;9.170;2024-01-07T12:01:33;5.00;84.50
63445;DHT22;49573;47.682;9.170;2024-01-07T12:04:20;5.00;84.70
63445;DHT22;49573;47.682;9.170;2024-01-07T12:07:06;5.00;84.90
63445;DHT22;49573;47.682;9.170;2024-01-07T12:09:57;5.00;84.90
63445;DHT22;49573;47.682;9.170;2024-01-07T12:12:43;5.00;84.50
63445;DHT22;49573;47.682;9.170;2024-01-07T12:15:30;4.90;84.10
63445;DHT22;49573;47.682;9.170;2024-01-07T12:18:16;4.80;83.90
63445;DHT22;49573;47.682;9.170;2024-01-07T12:21:02;4.80;84.40
63445;DHT22;49573;47.682;9.170;2024-01-07T12:23:50;4.80;84.30
63445;DHT22;49573;47.682;9.170;2024-01-07T12:26:38;4.70;84.20
63445;DHT22;49573;47.682;9.170;2024-01-07T12:29:24;4.70;84.60
63445;DHT22;49573;47.682;9.170;2024-01-07T12:32:11;4.70;84.00
63445;DHT22;49573;47.682;9.170;2024-01-07T12:34:57;4.70;84.00
63445;DHT22;49573;47.682;9.170;2024-01-07T12:37:44;4.70;83.90
63445;DHT22;49573;47.682;9.170;2024-01-07T12:40:30;4.70;83.70
63445;DHT22;49573;47.682;9.170;2024-01-07T12:43:18;4.70;83.30
63445;DHT22;49573;47.682;9.170;2024-01-07T12:46:04;4.70;83.20
63445;DHT22;49573;47.682;9.170;2024-01-07T12:48:51;4.70;83.50
63445;DHT22;49573;47.682;9.170;2024-01-07T12:51:37;4.70;83.30
63445;DHT22;49573;47.682;9.170;2024-01-07T12:54:23;4.60;82.80
63445;DHT22;49573;47.682;9.170;2024-01-07T12:57:10;4.60;82.80
63445;DHT22;49573;47.682;9.170;2024-01-07T12:59:57;4.50;83.00
63445;DHT22;49573;47.682;9.170;2024-01-07T13:02:43;4.60;83.30
63445;DHT22;49573;47.682;9.170;2024-01-07T13:05:29;4.60;83.30
63445;DHT22;49573;47.682;9.170;2024-01-07T13:08:16;4.60;82.90
63445;DHT22;49573;47.682;9.170;2024-01-07T13:11:04;4.60;83.40
63445;DHT22;49573;47.682;9.170;2024-01-07T13:13:51;4.60;82.80
63445;DHT22;49573;47.682;9.170;2024-01-07T13:16:38;4.50;83.20
63445;DHT22;49573;47.682;9.170;2024-01-07T13:19:24;4.50;83.20
63445;DHT22;49573;47.682;9.170;2024-01-07T13:22:12;4.50;83.20
63445;DHT22;49573;47.682;9.170;2024-01-07T13:24:59;4.50;82.30
63445;DHT22;49573;47.682;9.170;2024-01-07T13:27:45;4.40;83.10
63445;DHT22;49573;47.682;9.170;2024-01-07T13:30:31;4.40;83.30
63445;DHT22;49573;47.682;9.170;2024-01-07T13:33:19;4.40;82.90
63445;DHT22;49573;47.682;9.170;2024-01-07T13:36:06;4.40;83.40
63445;DHT22;49573;47.682;9.170;2024-01-07T13:38:55;4.30;83.50
63445;DHT22;49573;47.682;9.170;2024-01-07T13:41:41;4.30;84.20
63445;DHT22;49573;47.682;9.170;2024-01-07T13:44:27;4.30;84.00
63445;DHT22;49573;47.682;9.170;2024-01-07T13:47:14;4.30;84.00
63445;DHT22;49573;47.682;9.170;2024-01-07T13:50:01;4.30;83.50
63445;DHT22;49573;47.682;9.170;2024-01-07T13:52:49;4.30;83.90
63445;DHT22;49573;47.682;9.170;2024-01-07T13:55:36;4.20;84.00
63445;DHT22;49573;47.682;9.170;2024-01-07T13:58:22;4.20;84.20
63445;DHT22;49573;47.682;9.170;2024-01-07T14:01:09;4.20;84.50
63445;DHT22;49573;47.682;9.170;2024-01-07T14:03:55;4.20;84.20
63445;DHT22;49573;47.682;9.170;2024-01-07T14:06:43;4.30;84.50
63445;DHT22;49573;47.682;9.170;2024-01-07T14:09:29;4.30;83.60
63445;DHT22;49573;47.682;9.170;2024-01-07T14:12:16;4.20;84.00
63445;DHT22;49573;47.682;9.170;2024-01-07T14:15:03;4.10;83.90
63445;DHT22;49573;47.682;9.170;2024-01-07T14:17:50;4.10;83.90
63445;DHT22;49573;47.682;9.170;2024-01-07T14:20:36;4.10;84.30
63445;DHT22;49573;47.682;9.170;2024-01-07T14:23:24;4.20;84.00
63445;DHT22;49573;47.682;9.170;2024-01-07T14:26:10;4.00;84.20
63445;DHT22;49573;47.682;9.170;2024-01-07T14:28:56;4.10;84.10
63445;DHT22;49573;47.682;9.170;2024-01-07T14:31:42;4.00;84.10
63445;DHT22;49573;47.682;9.170;2024-01-07T14:34:28;4.00;83.90
63445;DHT22;49573;47.682;9.170;2024-01-07T14:37:15;4.00;84.50
63445;DHT22;49573;47.682;9.170;2024-01-07T14:40:03;4.00;83.70
63445;DHT22;49573;47.682;9.170;2024-01-07T14:42:50;4.00;84.10
63445;DHT22;49573;47.682;9.170;2024-01-07T14:45:38;3.90;84.10
63445;DHT22;49573;47.682;9.170;2024-01-07T14:48:25;3.90;83.80
63445;DHT22;49573;47.682;9.170;2024-01-07T14:51:11;3.90;83.80
63445;DHT22;49573;47.682;9.170;2024-01-07T14:53:57;3.80;83.00
63445;DHT22;49573;47.682;9.170;2024-01-07T14:56:44;3.80;83.10
63445;DHT22;49573;47.682;9.170;2024-01-07T14:59:30;3.70;82.40
63445;DHT22;49573;47.682;9.170;2024-01-07T15:02:16;3.70;83.20
63445;DHT22;49573;47.682;9.170;2024-01-07T15:05:03;3.70;83.50
63445;DHT22;49573;47.682;9.170;2024-01-07T15:07:49;3.70;83.50
63445;DHT22;49573;47.682;9.170;2024-01-07T15:10:35;3.60;83.30
63445;DHT22;49573;47.682;9.170;2024-01-07T15:13:22;3.60;83.20
63445;DHT22;49573;47.682;9.170;2024-01-07T15:16:09;3.50;83.80
63445;DHT22;49573;47.682;9.170;2024-01-07T15:18:55;3.50;82.30
63445;DHT22;49573;47.682;9.170;2024-01-07T15:21:41;3.50;83.10
63445;DHT22;49573;47.682;9.170;2024-01-07T15:24:27;3.40;82.70
63445;DHT22;49573;47.682;9.170;2024-01-07T15:27:13;3.40;82.90
63445;DHT22;49573;47.682;9.170;2024-01-07T15:30:00;3.40;82.70
63445;DHT22;49573;47.682;9.170;2024-01-07T15:32:46;3.40;83.30
63445;DHT22;49573;47.682;9.170;2024-01-07T15:35:32;3.40;82.80
63445;DHT22;49573;47.682;9.170;2024-01-07T15:38:18;3.40;82.80
63445;DHT22;49573;47.682;9.170;2024-01-07T15:41:04;3.30;83.40
63445;DHT22;49573;47.682;9.170;2024-01-07T15:43:50;3.30;83.30
63445;DHT22;49573;47.682;9.170;2024-01-07T15:46:38;3.30;83.30
63445;DHT22;49573;47.682;9.170;2024-01-07T15:49:24;3.30;83.00
63445;DHT22;49573;47.682;9.170;2024-01-07T15:52:10;3.20;82.80
63445;DHT22;49573;47.682;9.170;2024-01-07T15:54:56;3.20;83.20
63445;DHT22;49573;47.682;9.170;2024-01-07T15:57:42;3.20;82.40
63445;DHT22;49573;47.682;9.170;2024-01-07T16:00:30;3.20;83.10
63445;DHT22;49573;47.682;9.170;2024-01-07T16:03:17;3.20;83.00
63445;DHT22;49573;47.682;9.170;2024-01-07T16:06:04;3.20;82.40
63445;DHT22;49573;47.682;9.170;2024-01-07T16:08:50;3.10;82.70
63445;DHT22;49573;47.682;9.170;2024-01-07T16:11:36;3.10;82.50
63445;DHT22;49573;47.682;9.170;2024-01-07T16:14:22;3.10;83.10
63445;DHT22;49573;47.682;9.170;2024-01-07T16:17:13;3.00;83.20
63445;DHT22;49573;47.682;9.170;2024-01-07T16:20:00;3.00;82.40
63445;DHT22;49573;47.682;9.170;2024-01-07T16:22:46;2.90;82.90
63445;DHT22;49573;47.682;9.170;2024-01-07T16:25:32;3.00;82.30
63445;DHT22;49573;47.682;9.170;2024-01-07T16:28:18;3.00;82.60
63445;DHT22;49573;47.682;9.170;2024-01-07T16:31:04;3.00;82.60
63445;DHT22;49573;47.682;9.170;2024-01-07T16:33:51;3.00;82.80
63445;DHT22;49573;47.682;9.170;2024-01-07T16:37:11;2.90;82.80
63445;DHT22;49573;47.682;9.170;2024-01-07T16:39:57;2.90;83.10
63445;DHT22;49573;47.682;9.170;2024-01-07T16:42:43;2.90;83.20
63445;DHT22;49573;47.682;9.170;2024-01-07T16:45:29;2.90;82.70
63445;DHT22;49573;47.682;9.170;2024-01-07T16:48:15;2.90;82.70
63445;DHT22;49573;47.682;9.170;2024-01-07T16:51:02;2.90;82.70
63445;DHT22;49573;47.682;9.170;2024-01-07T16:53:50;2.80;82.30
63445;DHT22;49573;47.682;9.170;2024-01-07T16:56:36;2.70;82.00
63445;DHT22;49573;47.682;9.170;2024-01-07T16:59:22;2.70;82.40
63445;DHT22;49573;47.682;9.170;2024-01-07T17:02:10;2.70;82.50
63445;DHT22;49573;47.682;9.170;2024-01-07T17:04:56;2.70;82.20
63445;DHT22;49573;47.682;9.170;2024-01-07T17:07:42;2.70;82.20
63445;DHT22;49573;47.682;9.170;2024-01-07T17:10:30;2.60;82.50
63445;DHT22;49573;47.682;9.170;2024-01-07T17:13:16;2.50;82.30
63445;DHT22;49573;47.682;9.170;2024-01-07T17:16:02;2.60;82.70
63445;DHT22;49573;47.682;9.170;2024-01-07T17:18:48;2.50;81.80
63445;DHT22;49573;47.682;9.170;2024-01-07T17:21:34;2.50;82.00
63445;DHT22;49573;47.682;9.170;2024-01-07T17:24:20;2.40;82.00
63445;DHT22;49573;47.682;9.170;2024-01-07T17:27:08;2.30;82.00
63445;DHT22;49573;47.682;9.170;2024-01-07T17:29:54;2.30;82.30
63445;DHT22;49573;47.682;9.170;2024-01-07T17:32:40;2.20;82.40
63445;DHT22;49573;47.682;9.170;2024-01-07T17:35:26;2.20;82.20
63445;DHT22;49573;47.682;9.170;2024-01-07T17:38:12;2.30;83.10
63445;DHT22;49573;47.682;9.170;2024-01-07T17:41:00;2.20;82.40
63445;DHT22;49573;47.682;9.170;2024-01-07T17:43:47;2.20;82.50
63445;DHT22;49573;47.682;9.170;2024-01-07T17:46:33;2.10;83.00
63445;DHT22;49573;47.682;9.170;2024-01-07T17:49:19;2.10;82.80